Time;durP1;ratioP1;P1;durP2;ratioP2;P2;SDS_P1;SDS_P2;PMS_P1;PMS_P2;Temp;Humidity;BMP_temperature;BMP_pressure;BME280_temperature;BME280_humidity;BME280_pressure;Samples;Min_cycle;Max_cycle;Signal;HPM_P1;HPM_P2
2021/05/28 00:02:11;;;;;;;9.50;5.90;;;;;;;;;;773840;179;916624;-81
2021/05/28 00:04:37;;;;;;;6.10;4.87;;;;;;;;;;773358;180;915871;-81
2021/05/28 00:07:02;;;;;;;7.37;5.70;;;;;;;;;;780949;177;915260;-81
2021/05/28 00:09:28;;;;;;;7.80;5.60;;;;;;;;;;774852;176;901039;-81
2021/05/28 00:11:54;;;;;;;7.67;5.70;;;;;;;;;;774235;178;807849;-80
2021/05/28 00:14:20;;;;;;;7.30;5.30;;;;;;;;;;777150;179;1021982;-80
2021/05/28 00:16:46;;;;;;;11.30;5.17;;;;;;;;;;771971;178;914538;-80
2021/05/28 00:19:12;;;;;;;7.40;5.10;;;;;;;;;;771328;180;1016188;-80
2021/05/28 00:21:38;;;;;;;7.90;5.90;;;;;;;;;;782148;178;912791;-81
2021/05/28 00:24:04;;;;;;;6.63;4.87;;;;;;;;;;774162;177;911513;-80
2021/05/28 00:26:30;;;;;;;7.77;6.30;;;;;;;;;;775233;177;917128;-80
2021/05/28 00:28:57;;;;;;;5.30;4.63;;;;;;;;;;773836;180;911662;-78
2021/05/28 00:31:22;;;;;;;7.30;5.07;;;;;;;;;;775098;177;914148;-80
2021/05/28 00:33:48;;;;;;;9.45;5.20;;;;;;;;;;773240;180;896571;-80
2021/05/28 00:36:14;;;;;;;8.73;5.40;;;;;;;;;;775100;179;1126855;-79
2021/05/28 00:38:40;;;;;;;6.03;5.03;;;;;;;;;;778813;179;963210;-79
2021/05/28 00:41:06;;;;;;;9.60;6.00;;;;;;;;;;774637;180;978464;-79
2021/05/28 00:43:32;;;;;;;11.30;5.32;;;;;;;;;;775163;178;984757;-79
2021/05/28 00:45:59;;;;;;;8.60;5.27;;;;;;;;;;779525;179;917575;-78
2021/05/28 00:48:24;;;;;;;8.43;5.47;;;;;;;;;;777278;180;819104;-78
2021/05/28 00:50:49;;;;;;;9.83;7.17;;;;;;;;;;775585;177;916983;-79
2021/05/28 00:53:16;;;;;;;8.63;6.27;;;;;;;;;;773061;177;787602;-77
2021/05/28 00:55:42;;;;;;;17.20;7.00;;;;;;;;;;768886;180;916810;-78
2021/05/28 00:58:08;;;;;;;8.95;6.12;;;;;;;;;;774192;180;992930;-78
2021/05/28 01:00:34;;;;;;;7.20;5.77;;;;;;;;;;774459;180;918547;-77
2021/05/28 01:02:59;;;;;;;8.27;5.87;;;;;;;;;;777629;180;927882;-78
2021/05/28 01:05:25;;;;;;;9.93;5.63;;;;;;;;;;776095;180;816270;-76
2021/05/28 01:07:51;;;;;;;6.40;5.40;;;;;;;;;;772818;181;919305;-77
2021/05/28 01:10:17;;;;;;;7.83;5.97;;;;;;;;;;780412;180;924800;-77
2021/05/28 01:12:43;;;;;;;7.67;5.63;;;;;;;;;;771337;179;938717;-78
2021/05/28 01:15:09;;;;;;;8.03;6.00;;;;;;;;;;772448;178;917151;-78
2021/05/28 01:17:35;;;;;;;7.07;5.20;;;;;;;;;;775412;180;1021642;-77
2021/05/28 01:20:01;;;;;;;6.70;5.03;;;;;;;;;;772421;180;918609;-78
2021/05/28 01:22:27;;;;;;;6.93;4.50;;;;;;;;;;772698;180;919542;-77
2021/05/28 01:24:52;;;;;;;7.20;4.67;;;;;;;;;;770660;180;918140;-77
2021/05/28 01:27:18;;;;;;;6.53;4.77;;;;;;;;;;772887;180;919398;-77
2021/05/28 01:29:44;;;;;;;6.23;3.97;;;;;;;;;;772905;180;918622;-77
2021/05/28 01:32:10;;;;;;;7.47;4.97;;;;;;;;;;772485;180;919440;-77
2021/05/28 01:34:36;;;;;;;7.73;5.90;;;;;;;;;;776343;180;918955;-78
2021/05/28 01:37:02;;;;;;;12.27;6.80;;;;;;;;;;772271;180;1021913;-77
2021/05/28 01:39:28;;;;;;;5.50;4.57;;;;;;;;;;771440;180;940044;-77
2021/05/28 01:41:53;;;;;;;6.83;4.43;;;;;;;;;;781679;179;919393;-78
2021/05/28 01:44:19;;;;;;;9.00;5.22;;;;;;;;;;776056;177;917944;-78
2021/05/28 01:46:48;;;;;;;5.60;4.10;;;;;;;;;;770875;178;918326;-77
2021/05/28 01:49:11;;;;;;;5.60;4.70;;;;;;;;;;776881;179;1020914;-76
2021/05/28 01:51:37;;;;;;;6.27;5.23;;;;;;;;;;771932;180;919073;-77
2021/05/28 01:54:03;;;;;;;8.23;4.97;;;;;;;;;;771822;177;1204798;-78
2021/05/28 01:56:29;;;;;;;6.10;5.45;;;;;;;;;;763906;180;1064806;-77
2021/05/28 01:58:55;;;;;;;7.80;5.50;;;;;;;;;;774386;180;919792;-78
2021/05/28 02:01:20;;;;;;;7.15;4.55;;;;;;;;;;772803;180;920270;-79
2021/05/28 02:03:46;;;;;;;8.43;5.50;;;;;;;;;;772120;180;919403;-78
2021/05/28 02:06:12;;;;;;;12.43;5.20;;;;;;;;;;782186;177;862007;-79
2021/05/28 02:08:38;;;;;;;8.00;5.87;;;;;;;;;;773431;177;919672;-79
2021/05/28 02:11:04;;;;;;;6.53;5.40;;;;;;;;;;774413;177;919309;-78
2021/05/28 02:13:30;;;;;;;7.90;6.03;;;;;;;;;;776468;179;940839;-78
2021/05/28 02:15:55;;;;;;;10.67;6.80;;;;;;;;;;774021;178;915938;-79
2021/05/28 02:18:22;;;;;;;7.23;5.50;;;;;;;;;;774954;177;917087;-78
2021/05/28 02:20:48;;;;;;;9.57;5.77;;;;;;;;;;770880;180;1021560;-78
2021/05/28 02:23:13;;;;;;;6.07;5.00;;;;;;;;;;776127;180;879893;-78
2021/05/28 02:25:39;;;;;;;7.60;5.60;;;;;;;;;;774645;178;915199;-78
2021/05/28 02:28:05;;;;;;;7.40;6.10;;;;;;;;;;771835;179;1006141;-77
2021/05/28 02:30:30;;;;;;;6.57;5.13;;;;;;;;;;778548;178;1239579;-78
2021/05/28 02:32:57;;;;;;;7.53;6.03;;;;;;;;;;775500;178;915263;-78
2021/05/28 02:35:22;;;;;;;7.00;5.37;;;;;;;;;;773039;179;919594;-78
2021/05/28 02:37:48;;;;;;;12.60;6.20;;;;;;;;;;762837;181;1001456;-77
2021/05/28 02:40:14;;;;;;;8.83;4.77;;;;;;;;;;770805;180;918739;-79
2021/05/28 02:42:40;;;;;;;8.77;6.00;;;;;;;;;;773973;180;918121;-79
2021/05/28 02:45:06;;;;;;;7.43;5.55;;;;;;;;;;772928;177;1020097;-76
2021/05/28 02:47:32;;;;;;;7.50;4.83;;;;;;;;;;767406;181;1020818;-78
2021/05/28 02:49:59;;;;;;;7.60;5.57;;;;;;;;;;775697;178;920139;-78
2021/05/28 02:52:24;;;;;;;7.18;4.80;;;;;;;;;;772107;177;918728;-78
2021/05/28 02:54:50;;;;;;;6.57;4.43;;;;;;;;;;766866;180;711031;-79
2021/05/28 02:57:16;;;;;;;5.83;4.57;;;;;;;;;;771689;180;638145;-78
2021/05/28 02:59:41;;;;;;;5.80;4.80;;;;;;;;;;779974;179;647790;-78
2021/05/28 03:02:07;;;;;;;6.73;4.33;;;;;;;;;;780919;179;623848;-78
2021/05/28 03:04:33;;;;;;;7.97;5.33;;;;;;;;;;779833;178;630266;-79
2021/05/28 03:06:59;;;;;;;8.33;5.97;;;;;;;;;;777846;177;629394;-78
2021/05/28 03:09:25;;;;;;;7.30;5.43;;;;;;;;;;780393;180;618293;-79
2021/05/28 03:11:51;;;;;;;6.10;5.40;;;;;;;;;;775669;177;624198;-79
2021/05/28 03:14:16;;;;;;;7.30;5.33;;;;;;;;;;778511;178;641041;-79
2021/05/28 03:16:42;;;;;;;9.03;5.53;;;;;;;;;;775876;178;666636;-79
2021/05/28 03:19:18;;;;;;;8.77;6.67;;;;;;;;;;783637;177;617042;-79
2021/05/28 03:22:30;;;;;;;10.20;7.37;;;;;;;;;;777205;178;631473;-80
2021/05/28 03:24:04;;;;;;;13.07;5.77;;;;;;;;;;774151;180;633546;-78
2021/05/28 03:26:30;;;;;;;9.20;6.83;;;;;;;;;;776827;180;626017;-78
2021/05/28 03:28:56;;;;;;;8.67;6.27;;;;;;;;;;777199;179;622461;-78
2021/05/28 03:31:22;;;;;;;7.90;6.80;;;;;;;;;;776801;180;665102;-79
2021/05/28 03:33:48;;;;;;;10.60;7.50;;;;;;;;;;775668;180;625701;-79
2021/05/28 03:36:14;;;;;;;9.77;7.40;;;;;;;;;;778048;180;633251;-79
2021/05/28 03:38:40;;;;;;;9.90;7.50;;;;;;;;;;777299;180;629349;-79
2021/05/28 03:41:05;;;;;;;11.93;8.33;;;;;;;;;;774568;180;852163;-77
2021/05/28 03:43:31;;;;;;;18.73;8.53;;;;;;;;;;781216;180;627891;-77
2021/05/28 03:45:57;;;;;;;11.73;8.70;;;;;;;;;;777003;179;630191;-78
2021/05/28 03:48:23;;;;;;;15.10;9.50;;;;;;;;;;772580;177;665288;-78
2021/05/28 03:50:49;;;;;;;17.97;11.33;;;;;;;;;;778359;180;1021330;-79
2021/05/28 03:53:15;;;;;;;16.07;10.53;;;;;;;;;;774419;180;816262;-78
2021/05/28 03:55:41;;;;;;;14.98;9.95;;;;;;;;;;771200;180;918977;-78
2021/05/28 03:58:06;;;;;;;13.57;10.60;;;;;;;;;;777696;180;919353;-78
2021/05/28 04:00:32;;;;;;;15.80;9.90;;;;;;;;;;770347;180;916521;-78
2021/05/28 04:02:58;;;;;;;19.90;11.80;;;;;;;;;;761490;177;915911;-77
2021/05/28 04:05:24;;;;;;;24.03;13.63;;;;;;;;;;775814;177;631614;-77
2021/05/28 04:07:50;;;;;;;19.83;14.83;;;;;;;;;;778865;180;618528;-77
2021/05/28 04:10:16;;;;;;;31.40;16.37;;;;;;;;;;779026;177;628216;-78
2021/05/28 04:12:41;;;;;;;29.40;17.43;;;;;;;;;;776727;180;919383;-77
2021/05/28 04:15:08;;;;;;;24.17;16.53;;;;;;;;;;781791;180;817342;-78
2021/05/28 04:17:34;;;;;;;28.20;17.30;;;;;;;;;;774914;178;894038;-77
2021/05/28 04:19:59;;;;;;;25.60;16.07;;;;;;;;;;776503;178;919530;-78
2021/05/28 04:22:25;;;;;;;22.60;15.33;;;;;;;;;;762499;181;916891;-77
2021/05/28 04:24:51;;;;;;;22.03;14.80;;;;;;;;;;770720;180;918688;-77
2021/05/28 04:27:17;;;;;;;21.42;14.82;;;;;;;;;;770366;178;919324;-78
2021/05/28 04:29:43;;;;;;;21.63;15.43;;;;;;;;;;773160;180;918734;-77
2021/05/28 04:32:09;;;;;;;28.63;16.10;;;;;;;;;;775994;180;918598;-77
2021/05/28 04:34:35;;;;;;;28.03;17.90;;;;;;;;;;777348;180;816524;-77
2021/05/28 04:37:00;;;;;;;22.10;16.23;;;;;;;;;;766840;180;936564;-77
2021/05/28 04:39:26;;;;;;;32.73;19.50;;;;;;;;;;780769;180;816565;-77
2021/05/28 04:41:52;;;;;;;31.80;19.37;;;;;;;;;;774166;178;917519;-78
2021/05/28 04:44:18;;;;;;;31.00;19.25;;;;;;;;;;774582;180;1020507;-78
2021/05/28 04:46:44;;;;;;;28.70;18.57;;;;;;;;;;779854;180;816737;-78
2021/05/28 04:49:10;;;;;;;33.33;18.90;;;;;;;;;;774793;179;946204;-78
2021/05/28 04:51:35;;;;;;;30.70;17.77;;;;;;;;;;772692;177;1293251;-78
2021/05/28 04:54:01;;;;;;;25.60;16.87;;;;;;;;;;782563;179;900052;-78
2021/05/28 04:56:27;;;;;;;29.50;18.83;;;;;;;;;;769314;177;943302;-79
2021/05/28 04:58:53;;;;;;;34.27;21.30;;;;;;;;;;772824;180;919660;-77
2021/05/28 05:01:19;;;;;;;33.97;20.20;;;;;;;;;;770923;180;815426;-78
2021/05/28 05:03:45;;;;;;;41.60;22.50;;;;;;;;;;770604;180;920180;-78
2021/05/28 05:06:10;;;;;;;35.90;20.83;;;;;;;;;;757771;178;917524;-77
2021/05/28 05:08:36;;;;;;;37.90;22.67;;;;;;;;;;767295;183;816810;-78
2021/05/28 05:11:02;;;;;;;34.67;21.03;;;;;;;;;;768848;183;914779;-78
2021/05/28 05:13:28;;;;;;;31.83;18.90;;;;;;;;;;765705;183;913169;-79
2021/05/28 05:15:54;;;;;;;38.07;21.30;;;;;;;;;;765379;183;933752;-79
2021/05/28 05:18:20;;;;;;;29.17;19.40;;;;;;;;;;772235;183;894133;-78
2021/05/28 05:20:46;;;;;;;26.53;17.73;;;;;;;;;;761699;183;919340;-78
2021/05/28 05:23:11;;;;;;;31.57;18.30;;;;;;;;;;766735;182;918978;-79
2021/05/28 05:25:38;;;;;;;29.50;18.57;;;;;;;;;;765925;183;1020176;-78
2021/05/28 05:28:03;;;;;;;26.17;16.93;;;;;;;;;;770798;183;917445;-79
2021/05/28 05:30:29;;;;;;;27.10;18.30;;;;;;;;;;768341;183;917045;-79
2021/05/28 05:32:55;;;;;;;25.87;17.53;;;;;;;;;;763390;183;902640;-79
2021/05/28 05:35:21;;;;;;;21.73;16.27;;;;;;;;;;770753;183;761114;-79
2021/05/28 05:37:47;;;;;;;30.13;18.57;;;;;;;;;;764994;183;919069;-79
2021/05/28 05:40:12;;;;;;;26.83;17.97;;;;;;;;;;768005;183;881781;-79
2021/05/28 05:42:38;;;;;;;31.33;18.43;;;;;;;;;;770546;183;818680;-78
2021/05/28 05:45:05;;;;;;;27.10;17.62;;;;;;;;;;766856;183;917852;-78
2021/05/28 05:47:31;;;;;;;30.07;17.77;;;;;;;;;;766762;183;837199;-77
2021/05/28 05:49:56;;;;;;;27.48;18.80;;;;;;;;;;770151;183;814292;-78
2021/05/28 05:52:22;;;;;;;25.93;18.70;;;;;;;;;;766025;183;937758;-77
2021/05/28 05:54:48;;;;;;;25.67;19.27;;;;;;;;;;765287;183;815799;-77
2021/05/28 05:57:14;;;;;;;25.27;18.03;;;;;;;;;;764298;183;900643;-76
2021/05/28 05:59:40;;;;;;;21.53;16.37;;;;;;;;;;770259;183;815929;-77
2021/05/28 06:02:06;;;;;;;21.20;17.70;;;;;;;;;;766408;183;918575;-80
2021/05/28 06:04:31;;;;;;;23.57;15.13;;;;;;;;;;763772;183;814404;-78
2021/05/28 06:06:57;;;;;;;23.03;17.60;;;;;;;;;;768435;183;915636;-78
2021/05/28 06:09:23;;;;;;;20.77;15.70;;;;;;;;;;768149;183;785514;-81
2021/05/28 06:11:50;;;;;;;23.10;15.40;;;;;;;;;;767786;183;816197;-78
2021/05/28 06:14:16;;;;;;;22.60;14.87;;;;;;;;;;769431;183;815633;-78
2021/05/28 06:16:42;;;;;;;17.83;13.30;;;;;;;;;;764989;183;919146;-78
2021/05/28 06:19:09;;;;;;;16.00;12.23;;;;;;;;;;768595;183;950255;-80
2021/05/28 06:21:34;;;;;;;14.63;12.83;;;;;;;;;;764546;183;919211;-79
2021/05/28 06:24:01;;;;;;;15.63;12.23;;;;;;;;;;767210;183;938584;-79
2021/05/28 06:26:26;;;;;;;18.27;12.67;;;;;;;;;;768282;183;816899;-76
2021/05/28 06:28:52;;;;;;;15.70;12.70;;;;;;;;;;759396;183;918914;-79
2021/05/28 06:31:18;;;;;;;13.93;10.87;;;;;;;;;;769418;183;919434;-79
2021/05/28 06:33:44;;;;;;;14.20;11.30;;;;;;;;;;767352;181;817134;-79
2021/05/28 06:36:10;;;;;;;11.90;9.53;;;;;;;;;;768810;182;920591;-77
2021/05/28 06:38:36;;;;;;;12.93;10.47;;;;;;;;;;773981;183;869152;-78
2021/05/28 06:41:01;;;;;;;15.77;9.80;;;;;;;;;;765898;183;1023152;-78
2021/05/28 06:43:27;;;;;;;12.27;10.50;;;;;;;;;;765885;183;1137314;-76
2021/05/28 06:45:53;;;;;;;9.67;8.50;;;;;;;;;;766459;183;946349;-77
2021/05/28 06:48:19;;;;;;;13.13;9.17;;;;;;;;;;771068;181;1075692;-79
2021/05/28 06:50:45;;;;;;;11.20;10.00;;;;;;;;;;766468;183;869304;-78
2021/05/28 06:53:11;;;;;;;10.73;8.70;;;;;;;;;;766960;180;917414;-78
2021/05/28 06:55:37;;;;;;;12.13;9.63;;;;;;;;;;771360;183;916070;-78
2021/05/28 06:58:02;;;;;;;14.23;8.97;;;;;;;;;;767123;183;914089;-76
2021/05/28 07:00:28;;;;;;;8.73;7.53;;;;;;;;;;766449;183;912592;-76
2021/05/28 07:02:55;;;;;;;11.20;7.47;;;;;;;;;;770093;183;635169;-76
2021/05/28 07:05:20;;;;;;;8.63;7.07;;;;;;;;;;767996;183;816415;-77
2021/05/28 07:07:46;;;;;;;8.10;7.13;;;;;;;;;;768280;183;817936;-77
2021/05/28 07:10:12;;;;;;;9.57;7.13;;;;;;;;;;770564;183;816458;-76
2021/05/28 07:12:38;;;;;;;8.27;6.40;;;;;;;;;;766932;183;917110;-76
2021/05/28 07:15:04;;;;;;;7.57;5.73;;;;;;;;;;769636;183;628361;-77
2021/05/28 07:17:29;;;;;;;8.90;5.87;;;;;;;;;;764882;183;919373;-74
2021/05/28 07:19:55;;;;;;;6.73;4.83;;;;;;;;;;764949;183;1708124;-75
2021/05/28 07:22:21;;;;;;;6.93;6.03;;;;;;;;;;764262;183;918672;-76
2021/05/28 07:24:47;;;;;;;5.63;4.80;;;;;;;;;;765721;183;918587;-76
2021/05/28 07:27:13;;;;;;;5.10;4.40;;;;;;;;;;770965;183;814485;-77
2021/05/28 07:29:39;;;;;;;6.00;5.37;;;;;;;;;;766686;183;918962;-77
2021/05/28 07:32:05;;;;;;;7.90;5.70;;;;;;;;;;769762;183;712813;-77
2021/05/28 07:34:30;;;;;;;5.17;4.20;;;;;;;;;;770359;183;646942;-77
2021/05/28 07:36:56;;;;;;;10.93;4.20;;;;;;;;;;767422;183;918537;-77
2021/05/28 07:39:22;;;;;;;7.20;4.40;;;;;;;;;;769403;183;633296;-77
2021/05/28 07:41:48;;;;;;;4.93;4.07;;;;;;;;;;766281;183;784661;-76
2021/05/28 07:44:14;;;;;;;6.93;4.27;;;;;;;;;;768094;183;631468;-77
2021/05/28 07:46:43;;;;;;;5.23;4.17;;;;;;;;;;770857;182;815364;-76
2021/05/28 07:49:05;;;;;;;4.90;3.80;;;;;;;;;;764015;182;918905;-77
2021/05/28 07:51:31;;;;;;;6.03;4.80;;;;;;;;;;772035;183;877225;-75
2021/05/28 07:53:57;;;;;;;5.13;4.27;;;;;;;;;;767368;180;917917;-76
2021/05/28 07:56:23;;;;;;;6.50;4.63;;;;;;;;;;766846;183;915407;-74
2021/05/28 07:58:49;;;;;;;4.97;4.40;;;;;;;;;;770398;183;919331;-75
2021/05/28 08:01:15;;;;;;;5.80;4.37;;;;;;;;;;763733;183;878584;-76
2021/05/28 08:03:40;;;;;;;5.80;4.43;;;;;;;;;;768708;183;815155;-76
2021/05/28 08:06:06;;;;;;;4.90;4.40;;;;;;;;;;772371;183;918083;-75
2021/05/28 08:08:32;;;;;;;6.53;3.97;;;;;;;;;;766686;183;919419;-75
2021/05/28 08:10:58;;;;;;;5.93;4.87;;;;;;;;;;766788;183;919174;-76
2021/05/28 08:13:24;;;;;;;7.53;4.73;;;;;;;;;;766436;183;919005;-77
2021/05/28 08:15:50;;;;;;;5.83;5.23;;;;;;;;;;770730;183;814770;-76
2021/05/28 08:18:15;;;;;;;4.90;4.40;;;;;;;;;;765651;183;922075;-76
2021/05/28 08:20:42;;;;;;;4.73;3.90;;;;;;;;;;765104;183;917286;-77
2021/05/28 08:23:07;;;;;;;5.50;4.43;;;;;;;;;;772722;183;629756;-76
2021/05/28 08:25:33;;;;;;;5.23;4.27;;;;;;;;;;766479;183;877678;-76
2021/05/28 08:27:59;;;;;;;6.67;4.13;;;;;;;;;;764115;183;918759;-76
2021/05/28 08:30:25;;;;;;;5.40;4.00;;;;;;;;;;770862;183;816063;-76
2021/05/28 08:32:50;;;;;;;5.87;3.93;;;;;;;;;;762941;183;1017724;-74
2021/05/28 08:35:16;;;;;;;5.55;4.18;;;;;;;;;;766460;183;916381;-75
2021/05/28 08:37:42;;;;;;;5.40;4.90;;;;;;;;;;768848;183;919882;-75
2021/05/28 08:40:08;;;;;;;7.03;4.17;;;;;;;;;;765410;183;816887;-74
2021/05/28 08:42:34;;;;;;;4.53;3.95;;;;;;;;;;765836;183;918733;-76
2021/05/28 08:45:00;;;;;;;8.90;4.90;;;;;;;;;;762307;183;918771;-75
2021/05/28 08:47:26;;;;;;;12.43;9.13;;;;;;;;;;769996;183;873944;-76
2021/05/28 08:49:52;;;;;;;7.53;6.00;;;;;;;;;;766961;183;817017;-76
2021/05/28 08:52:17;;;;;;;21.17;17.30;;;;;;;;;;765654;183;1020589;-75
2021/05/28 08:54:43;;;;;;;6.40;5.60;;;;;;;;;;770979;183;918931;-75
2021/05/28 08:57:09;;;;;;;5.13;4.63;;;;;;;;;;764707;181;917320;-74
2021/05/28 08:59:35;;;;;;;7.17;5.00;;;;;;;;;;767799;182;817644;-75
2021/05/28 09:02:01;;;;;;;5.67;4.93;;;;;;;;;;771164;183;919241;-75
2021/05/28 09:04:27;;;;;;;5.73;4.73;;;;;;;;;;766651;183;918368;-75
2021/05/28 09:06:53;;;;;;;4.40;3.90;;;;;;;;;;767428;183;816295;-76
2021/05/28 09:09:20;;;;;;;5.33;4.83;;;;;;;;;;767968;183;916380;-74
2021/05/28 09:11:51;;;;;;;6.30;5.43;;;;;;;;;;769334;183;914666;-76
2021/05/28 09:14:23;;;;;;;8.67;5.23;;;;;;;;;;767578;183;884002;-73
2021/05/28 09:16:50;;;;;;;7.20;4.47;;;;;;;;;;763240;183;915629;-77
2021/05/28 09:19:16;;;;;;;6.73;5.33;;;;;;;;;;770026;183;666865;-76
2021/05/28 09:21:41;;;;;;;5.20;4.60;;;;;;;;;;772374;183;614178;-76
2021/05/28 09:24:08;;;;;;;5.03;4.43;;;;;;;;;;771265;183;623801;-74
2021/05/28 09:26:34;;;;;;;6.23;4.50;;;;;;;;;;767018;183;810801;-75
2021/05/28 09:29:01;;;;;;;5.53;4.80;;;;;;;;;;773536;183;816726;-75
2021/05/28 09:31:26;;;;;;;5.20;4.70;;;;;;;;;;768940;183;815370;-75
2021/05/28 09:33:52;;;;;;;4.70;3.93;;;;;;;;;;767021;183;816364;-77
2021/05/28 09:36:19;;;;;;;6.00;4.77;;;;;;;;;;772711;183;816432;-74
2021/05/28 09:38:51;;;;;;;4.70;4.20;;;;;;;;;;766210;183;918972;-75
2021/05/28 09:41:16;;;;;;;5.60;4.97;;;;;;;;;;761768;183;961221;-75
2021/05/28 09:43:42;;;;;;;5.77;5.00;;;;;;;;;;763932;183;918185;-75
2021/05/28 09:46:10;;;;;;;9.00;6.10;;;;;;;;;;768123;183;817663;-75
2021/05/28 09:48:36;;;;;;;5.90;4.77;;;;;;;;;;765257;183;950381;-75
2021/05/28 09:51:03;;;;;;;4.90;4.40;;;;;;;;;;765166;183;909264;-75
2021/05/28 09:53:40;;;;;;;4.07;3.67;;;;;;;;;;763331;183;920118;-75
2021/05/28 09:56:11;;;;;;;5.13;4.63;;;;;;;;;;752961;184;918340;-75
2021/05/28 09:58:43;;;;;;;5.93;4.50;;;;;;;;;;765313;183;818730;-74
2021/05/28 10:01:09;;;;;;;6.80;5.37;;;;;;;;;;764149;183;814387;-74
2021/05/28 10:03:36;;;;;;;4.07;3.23;;;;;;;;;;765893;183;818470;-74
2021/05/28 10:06:00;;;;;;;4.73;3.93;;;;;;;;;;764007;183;920325;-74
2021/05/28 10:08:26;;;;;;;7.10;5.10;;;;;;;;;;765112;182;915729;-75
2021/05/28 10:10:52;;;;;;;6.43;5.30;;;;;;;;;;767060;182;917066;-75
2021/05/28 10:13:18;;;;;;;5.50;4.47;;;;;;;;;;769557;183;918689;-75
2021/05/28 10:15:44;;;;;;;8.33;4.77;;;;;;;;;;759622;183;919191;-75
2021/05/28 10:18:10;;;;;;;5.53;4.10;;;;;;;;;;762397;183;1616882;-75
2021/05/28 10:20:36;;;;;;;5.37;4.60;;;;;;;;;;764797;183;918575;-75
2021/05/28 10:23:02;;;;;;;4.33;3.93;;;;;;;;;;770886;183;918518;-74
2021/05/28 10:25:28;;;;;;;5.70;4.47;;;;;;;;;;765141;183;919027;-73
2021/05/28 10:27:53;;;;;;;13.50;4.90;;;;;;;;;;762922;183;915803;-74
2021/05/28 10:30:20;;;;;;;4.73;4.03;;;;;;;;;;769895;183;919434;-74
2021/05/28 10:32:45;;;;;;;6.10;4.90;;;;;;;;;;764907;183;918661;-74
2021/05/28 10:35:14;;;;;;;8.20;5.97;;;;;;;;;;766919;181;916589;-75
2021/05/28 10:37:39;;;;;;;7.60;6.60;;;;;;;;;;768039;183;914406;-74
2021/05/28 10:40:24;;;;;;;7.27;6.43;;;;;;;;;;759268;183;914762;-73
2021/05/28 10:42:55;;;;;;;6.83;5.77;;;;;;;;;;772484;183;914142;-75
2021/05/28 10:45:27;;;;;;;6.77;6.00;;;;;;;;;;755206;183;935029;-73
2021/05/28 10:47:53;;;;;;;7.10;6.17;;;;;;;;;;763131;183;915719;-76
2021/05/28 10:50:19;;;;;;;8.43;6.60;;;;;;;;;;765072;183;917598;-73
2021/05/28 10:52:45;;;;;;;8.20;6.73;;;;;;;;;;763113;183;916428;-74
2021/05/28 10:55:11;;;;;;;7.00;5.90;;;;;;;;;;764474;183;915246;-74
2021/05/28 10:57:42;;;;;;;7.80;4.70;;;;;;;;;;767255;183;813179;-76
2021/05/28 11:00:09;;;;;;;6.47;5.63;;;;;;;;;;770824;183;915892;-74
2021/05/28 11:02:40;;;;;;;6.67;4.27;;;;;;;;;;762405;183;921302;-74
2021/05/28 11:05:07;;;;;;;6.32;4.60;;;;;;;;;;763547;183;937514;-74
2021/05/28 11:07:32;;;;;;;5.37;4.60;;;;;;;;;;764535;183;915466;-76
2021/05/28 11:09:58;;;;;;;7.53;5.30;;;;;;;;;;772097;182;710894;-76
2021/05/28 11:12:40;;;;;;;7.37;5.13;;;;;;;;;;765608;183;915746;-74
2021/05/28 11:15:09;;;;;;;6.33;5.23;;;;;;;;;;763583;183;898623;-75
2021/05/28 11:17:34;;;;;;;9.20;5.93;;;;;;;;;;763815;183;915298;-76
2021/05/28 11:20:01;;;;;;;9.40;6.73;;;;;;;;;;768891;182;813085;-74
2021/05/28 11:22:25;;;;;;;6.70;4.90;;;;;;;;;;768826;182;914734;-76
2021/05/28 11:24:54;;;;;;;4.80;4.30;;;;;;;;;;764130;183;919032;-75
2021/05/28 11:27:35;;;;;;;5.17;4.67;;;;;;;;;;764643;183;945386;-77
2021/05/28 11:30:17;;;;;;;5.90;5.20;;;;;;;;;;764341;183;1183418;-75
2021/05/28 11:32:49;;;;;;;5.43;4.00;;;;;;;;;;765438;183;814925;-74
2021/05/28 11:35:30;;;;;;;5.23;4.50;;;;;;;;;;764979;183;920990;-77
2021/05/28 11:37:58;;;;;;;5.40;4.10;;;;;;;;;;769513;183;918532;-76
2021/05/28 11:40:23;;;;;;;5.97;4.37;;;;;;;;;;764590;183;635291;-77
2021/05/28 11:42:48;;;;;;;5.80;4.53;;;;;;;;;;767383;183;816052;-76
2021/05/28 11:45:14;;;;;;;4.93;3.97;;;;;;;;;;771050;183;943129;-76
2021/05/28 11:47:40;;;;;;;7.90;5.50;;;;;;;;;;766464;183;818538;-76
2021/05/28 11:50:07;;;;;;;11.00;5.73;;;;;;;;;;766481;183;918005;-78
2021/05/28 11:52:33;;;;;;;8.13;4.70;;;;;;;;;;764959;183;918484;-75
2021/05/28 11:55:04;;;;;;;6.07;4.90;;;;;;;;;;767315;183;918652;-75
2021/05/28 11:57:30;;;;;;;8.67;4.43;;;;;;;;;;763844;182;919520;-77
2021/05/28 11:59:57;;;;;;;5.80;4.73;;;;;;;;;;765707;183;919151;-72
2021/05/28 12:02:28;;;;;;;5.93;4.67;;;;;;;;;;772216;183;633828;-77
2021/05/28 12:04:54;;;;;;;5.83;5.13;;;;;;;;;;772764;183;709106;-76
2021/05/28 12:07:19;;;;;;;4.73;3.93;;;;;;;;;;767516;183;660885;-76
2021/05/28 12:09:51;;;;;;;6.70;4.10;;;;;;;;;;767291;183;624984;-75
2021/05/28 12:12:17;;;;;;;5.20;4.10;;;;;;;;;;772446;183;616369;-76
2021/05/28 12:14:43;;;;;;;6.07;4.17;;;;;;;;;;770854;183;616511;-77
2021/05/28 12:17:09;;;;;;;5.73;4.47;;;;;;;;;;769861;183;625370;-76
2021/05/28 12:19:39;;;;;;;5.57;4.62;;;;;;;;;;771211;183;623147;-75
2021/05/28 12:22:05;;;;;;;5.83;4.90;;;;;;;;;;771662;180;613116;-74
2021/05/28 12:24:30;;;;;;;6.47;4.37;;;;;;;;;;766064;183;624520;-77
2021/05/28 12:26:56;;;;;;;5.60;4.23;;;;;;;;;;768965;183;657856;-77
2021/05/28 12:29:22;;;;;;;5.90;3.95;;;;;;;;;;771214;183;625897;-73
2021/05/28 12:31:48;;;;;;;5.63;4.10;;;;;;;;;;769531;182;633120;-75
2021/05/28 12:34:14;;;;;;;5.47;3.90;;;;;;;;;;770999;182;628586;-77
2021/05/28 12:36:40;;;;;;;5.30;3.60;;;;;;;;;;774981;183;628702;-75
2021/05/28 12:39:08;;;;;;;4.67;3.90;;;;;;;;;;770923;183;633855;-75
2021/05/28 12:41:34;;;;;;;4.60;3.40;;;;;;;;;;769991;183;634554;-74
2021/05/28 12:44:00;;;;;;;4.00;3.40;;;;;;;;;;767467;183;1091200;-75
2021/05/28 12:46:26;;;;;;;4.73;3.63;;;;;;;;;;772251;183;625344;-75
2021/05/28 12:48:52;;;;;;;11.53;4.27;;;;;;;;;;768001;183;640093;-74
2021/05/28 12:51:18;;;;;;;10.80;6.97;;;;;;;;;;768680;183;674391;-74
2021/05/28 12:53:44;;;;;;;4.03;3.40;;;;;;;;;;774142;183;638538;-74
2021/05/28 12:56:09;;;;;;;4.17;3.27;;;;;;;;;;767883;183;636551;-74
2021/05/28 12:58:35;;;;;;;4.80;3.87;;;;;;;;;;767030;183;626850;-75
2021/05/28 13:01:01;;;;;;;3.80;3.07;;;;;;;;;;772575;183;623713;-73
2021/05/28 13:03:30;;;;;;;8.33;4.80;;;;;;;;;;766800;183;625824;-74
2021/05/28 13:05:56;;;;;;;4.57;4.13;;;;;;;;;;768776;183;619157;-75
2021/05/28 13:08:36;;;;;;;4.50;3.63;;;;;;;;;;765605;183;639684;-71
2021/05/28 13:11:02;;;;;;;4.97;3.03;;;;;;;;;;767016;183;635294;-72
2021/05/28 13:13:28;;;;;;;4.83;3.00;;;;;;;;;;773067;183;619647;-74
2021/05/28 13:15:55;;;;;;;3.93;3.00;;;;;;;;;;768828;183;623397;-74
2021/05/28 13:18:21;;;;;;;8.60;5.17;;;;;;;;;;767229;180;633107;-75
2021/05/28 13:20:47;;;;;;;4.63;2.90;;;;;;;;;;770504;183;629803;-73
2021/05/28 13:23:17;;;;;;;3.37;2.80;;;;;;;;;;769768;180;624706;-76
2021/05/28 13:25:43;;;;;;;4.60;3.23;;;;;;;;;;769391;183;622147;-75
2021/05/28 13:28:09;;;;;;;3.20;2.70;;;;;;;;;;766824;183;630125;-75
2021/05/28 13:30:36;;;;;;;4.77;3.30;;;;;;;;;;768757;183;642445;-74
2021/05/28 13:33:08;;;;;;;4.70;2.97;;;;;;;;;;766361;183;638940;-73
2021/05/28 13:35:33;;;;;;;3.60;3.00;;;;;;;;;;771870;183;620042;-74
2021/05/28 13:37:59;;;;;;;5.30;3.10;;;;;;;;;;772996;183;649222;-74
2021/05/28 13:40:25;;;;;;;3.87;2.73;;;;;;;;;;767924;183;626320;-74
2021/05/28 13:42:51;;;;;;;5.93;3.50;;;;;;;;;;768509;181;644252;-73
2021/05/28 13:45:17;;;;;;;4.80;2.80;;;;;;;;;;769042;182;647620;-73
2021/05/28 13:47:43;;;;;;;5.00;3.17;;;;;;;;;;770559;181;642192;-73
2021/05/28 13:50:09;;;;;;;109.80;31.33;;;;;;;;;;770050;183;623888;-74
2021/05/28 13:52:34;;;;;;;22.83;5.73;;;;;;;;;;770866;183;627853;-73
2021/05/28 13:55:00;;;;;;;7.80;3.90;;;;;;;;;;772700;183;639656;-74
2021/05/28 13:57:27;;;;;;;3.20;2.20;;;;;;;;;;769267;183;662494;-75
2021/05/28 13:59:53;;;;;;;8.93;2.50;;;;;;;;;;768744;183;635303;-74
2021/05/28 14:02:18;;;;;;;9.87;4.40;;;;;;;;;;773787;183;618789;-73
2021/05/28 14:04:44;;;;;;;150.20;39.40;;;;;;;;;;769456;183;631884;-74
2021/05/28 14:07:10;;;;;;;8.80;3.80;;;;;;;;;;768291;183;614301;-74
2021/05/28 14:09:36;;;;;;;3.62;2.87;;;;;;;;;;768255;183;632076;-74
2021/05/28 14:12:02;;;;;;;3.50;2.70;;;;;;;;;;775458;180;614282;-73
2021/05/28 14:14:28;;;;;;;5.23;3.50;;;;;;;;;;769417;181;628948;-73
2021/05/28 14:16:54;;;;;;;3.40;2.43;;;;;;;;;;770582;183;627461;-75
2021/05/28 14:19:20;;;;;;;3.20;2.80;;;;;;;;;;772410;180;635800;-74